Time;durP1;ratioP1;P1;durP2;ratioP2;P2;SDS_P1;SDS_P2;PMS_P1;PMS_P2;Temp;Humidity;BMP_temperature;BMP_pressure;BME280_temperature;BME280_humidity;BME280_pressure;Samples;Min_cycle;Max_cycle;Signal;HPM_P1;HPM_P2
2023/04/06 06:31:59;;;;;;;18.27;10.65;;;3.40;88.20;;;;;;6690525;23;20054;-77
2023/04/06 06:35:01;;;;;;;16.30;10.38;;;3.50;87.50;;;;;;6177558;28;20047;-78
2023/04/06 06:38:03;;;;;;;17.83;10.98;;;3.60;87.80;;;;;;6169784;28;20053;-79
2023/04/06 06:41:05;;;;;;;15.85;10.25;;;3.70;87.70;;;;;;6142593;29;20054;-78
2023/04/06 06:44:07;;;;;;;15.98;10.57;;;3.80;87.00;;;;;;6148552;29;20058;-79
2023/04/06 06:47:10;;;;;;;14.18;9.93;;;3.80;86.90;;;;;;6129305;29;20413;-79
2023/04/06 06:50:12;;;;;;;17.42;10.48;;;3.80;86.70;;;;;;6129136;29;20068;-78
2023/04/06 06:53:14;;;;;;;14.75;9.95;;;3.90;86.50;;;;;;6129156;29;20063;-79
2023/04/06 06:56:16;;;;;;;15.30;10.10;;;3.90;86.30;;;;;;6143565;29;20047;-81
2023/04/06 06:59:18;;;;;;;15.05;10.90;;;4.00;86.30;;;;;;6129115;29;20048;-79
2023/04/06 07:02:21;;;;;;;16.58;9.82;;;4.10;86.60;;;;;;6132313;29;20055;-80
2023/04/06 07:05:23;;;;;;;17.08;11.00;;;3.90;86.40;;;;;;6151333;29;20404;-80
2023/04/06 07:08:25;;;;;;;16.48;9.90;;;4.00;87.30;;;;;;6152501;29;20050;-83
2023/04/06 07:11:27;;;;;;;18.23;10.88;;;4.20;87.80;;;;;;6152850;29;20051;-83
2023/04/06 07:14:29;;;;;;;17.30;10.00;;;4.30;87.70;;;;;;6152496;29;20420;-81
2023/04/06 07:17:32;;;;;;;13.82;9.50;;;4.40;87.70;;;;;;6152454;29;20051;-80
2023/04/06 07:20:34;;;;;;;15.40;9.85;;;4.40;84.70;;;;;;6152422;29;20047;-79
2023/04/06 07:23:36;;;;;;;16.25;9.80;;;4.50;83.40;;;;;;6152150;29;20198;-79
2023/04/06 07:26:37;;;;;;;16.58;9.57;;;4.40;82.40;;;;;;6152195;29;20051;-80
2023/04/06 07:29:39;;;;;;;14.40;9.55;;;4.60;82.00;;;;;;6151993;29;20051;-80
2023/04/06 07:32:42;;;;;;;14.98;10.45;;;4.70;82.00;;;;;;6151929;28;20043;-80
2023/04/06 07:35:45;;;;;;;15.70;10.02;;;4.70;81.40;;;;;;6152014;29;20499;-80
2023/04/06 07:38:47;;;;;;;16.30;9.52;;;4.80;81.50;;;;;;6151975;29;20054;-79
2023/04/06 07:41:48;;;;;;;15.60;9.93;;;4.80;80.60;;;;;;6151861;29;20469;-79
2023/04/06 07:44:50;;;;;;;16.40;9.40;;;4.90;80.60;;;;;;6151924;29;20186;-80
2023/04/06 07:47:53;;;;;;;14.38;9.70;;;5.00;79.80;;;;;;6151049;28;20051;-79
2023/04/06 07:51:02;;;;;;;14.63;9.32;;;5.00;79.20;;;;;;6151816;29;20055;-79
2023/04/06 07:54:05;;;;;;;17.10;9.90;;;5.10;79.30;;;;;;6151697;29;20062;-80
2023/04/06 07:57:06;;;;;;;14.82;9.57;;;5.20;79.80;;;;;;6151710;29;20051;-81
2023/04/06 08:00:10;;;;;;;18.25;10.20;;;5.20;79.10;;;;;;6151318;29;20088;-80
2023/04/06 08:03:13;;;;;;;16.42;10.20;;;5.30;79.30;;;;;;6148632;29;20477;-81
2023/04/06 08:06:15;;;;;;;16.25;10.05;;;5.30;78.80;;;;;;6148357;29;20070;-79
2023/04/06 08:09:17;;;;;;;15.23;10.35;;;5.40;78.80;;;;;;6148066;29;20404;-80
2023/04/06 08:12:19;;;;;;;15.25;9.27;;;5.60;78.70;;;;;;6148558;29;20058;-80
2023/04/06 08:15:21;;;;;;;13.93;9.35;;;5.70;77.70;;;;;;6147796;29;20063;-81
2023/04/06 08:18:24;;;;;;;18.77;9.80;;;5.80;77.50;;;;;;6148637;29;20062;-80
2023/04/06 08:21:26;;;;;;;15.02;9.38;;;5.90;77.90;;;;;;6146122;29;20142;-82
2023/04/06 08:24:28;;;;;;;17.55;10.05;;;5.90;76.70;;;;;;6148106;29;20047;-79
2023/04/06 08:27:30;;;;;;;17.55;10.10;;;6.00;76.60;;;;;;6147672;29;20078;-81
2023/04/06 08:30:32;;;;;;;17.80;11.75;;;6.20;77.20;;;;;;6147923;28;20120;-81
2023/04/06 08:33:38;;;;;;;18.80;11.65;;;6.30;78.70;;;;;;6147793;29;20083;-80
2023/04/06 08:36:40;;;;;;;18.77;11.48;;;6.40;78.10;;;;;;6147922;29;20047;-82
2023/04/06 08:39:42;;;;;;;18.25;12.10;;;6.50;79.10;;;;;;6147716;29;20054;-82
2023/04/06 08:42:50;;;;;;;19.45;11.43;;;6.60;79.40;;;;;;6147918;29;20059;-81
2023/04/06 08:45:52;;;;;;;19.95;12.02;;;6.70;77.70;;;;;;6147961;29;20051;-81
2023/04/06 08:48:56;;;;;;;20.40;12.18;;;6.90;76.90;;;;;;6147858;29;20051;-82
2023/04/06 08:52:00;;;;;;;19.65;12.07;;;6.90;76.70;;;;;;6147330;29;20507;-82
2023/04/06 08:55:03;;;;;;;16.95;10.90;;;7.00;76.20;;;;;;6147964;29;20116;-81
2023/04/06 08:58:08;;;;;;;20.83;13.60;;;7.00;76.10;;;;;;6147574;29;20090;-81
2023/04/06 09:01:13;;;;;;;15.63;9.90;;;7.20;74.60;;;;;;6151658;28;20047;-82
2023/04/06 09:04:16;;;;;;;13.90;8.55;;;7.20;70.10;;;;;;6152258;29;20047;-76
2023/04/06 09:07:18;;;;;;;16.05;8.68;;;7.40;72.50;;;;;;6152152;29;20365;-78
2023/04/06 09:10:23;;;;;;;13.38;8.57;;;7.50;71.30;;;;;;6151982;29;20051;-77
2023/04/06 09:13:24;;;;;;;15.10;8.60;;;7.60;69.80;;;;;;6152058;29;20514;-77
2023/04/06 09:16:26;;;;;;;14.93;8.65;;;7.70;69.30;;;;;;6152074;29;20047;-78
2023/04/06 09:19:30;;;;;;;12.60;8.13;;;7.80;72.30;;;;;;6151812;29;20049;-77
2023/04/06 09:22:38;;;;;;;13.40;9.30;;;7.90;67.40;;;;;;6149860;29;20055;-77
2023/04/06 09:25:40;;;;;;;14.35;8.80;;;7.90;66.60;;;;;;6151686;29;20062;-77
2023/04/06 09:28:47;;;;;;;15.23;9.05;;;8.10;66.60;;;;;;6148462;29;20062;-77
2023/04/06 09:31:49;;;;;;;15.77;9.77;;;8.20;66.70;;;;;;6176151;28;20046;-76
2023/04/06 09:34:52;;;;;;;14.18;9.13;;;8.20;66.40;;;;;;6176773;28;20408;-76
2023/04/06 09:37:55;;;;;;;14.20;9.50;;;8.30;66.00;;;;;;6175192;28;20051;-77
2023/04/06 09:40:56;;;;;;;16.08;9.32;;;8.30;65.20;;;;;;6174686;28;20155;-76
2023/04/06 09:44:05;;;;;;;14.80;8.77;;;8.40;65.30;;;;;;6175577;28;20051;-76
2023/04/06 09:47:08;;;;;;;14.27;9.45;;;8.50;64.60;;;;;;6174726;28;20046;-76
2023/04/06 09:50:14;;;;;;;15.85;9.40;;;8.60;65.00;;;;;;6174743;28;20408;-75
2023/04/06 09:53:19;;;;;;;29.52;16.95;;;8.70;65.60;;;;;;6174842;28;20047;-75
2023/04/06 09:56:26;;;;;;;47.53;24.40;;;8.80;65.40;;;;;;6174638;28;20240;-75
2023/04/06 09:59:40;;;;;;;17.23;10.55;;;8.90;65.80;;;;;;6174450;28;20063;-76
2023/04/06 10:02:51;;;;;;;15.88;10.02;;;9.00;64.50;;;;;;6174387;28;20059;-76
2023/04/06 10:05:58;;;;;;;14.68;10.27;;;9.10;65.10;;;;;;6174226;28;20145;-77
2023/04/06 10:09:03;;;;;;;14.57;9.10;;;9.10;64.50;;;;;;6174424;28;20057;-76
2023/04/06 10:12:05;;;;;;;15.00;9.93;;;9.10;63.30;;;;;;6173736;28;20385;-76
2023/04/06 10:15:10;;;;;;;15.35;8.95;;;9.10;63.60;;;;;;6174170;28;20403;-76
2023/04/06 10:18:12;;;;;;;12.77;8.48;;;9.20;63.00;;;;;;6174135;28;20197;-76
2023/04/06 10:21:20;;;;;;;14.68;8.98;;;9.40;62.20;;;;;;6172157;28;20054;-76
2023/04/06 10:24:22;;;;;;;13.90;8.52;;;9.40;62.00;;;;;;6174463;28;20427;-76
2023/04/06 10:27:31;;;;;;;15.85;8.68;;;9.50;60.80;;;;;;6173881;28;20380;-76
2023/04/06 10:30:34;;;;;;;13.80;8.35;;;9.60;60.40;;;;;;6170660;28;20059;-76
2023/04/06 10:33:36;;;;;;;15.83;9.07;;;9.60;59.70;;;;;;6144991;29;20055;-76
2023/04/06 10:36:39;;;;;;;13.00;8.80;;;9.60;59.20;;;;;;6148026;29;20194;-77
2023/04/06 10:39:48;;;;;;;13.23;8.65;;;9.70;59.70;;;;;;6149976;29;20145;-77
2023/04/06 10:42:50;;;;;;;13.63;8.57;;;9.80;59.40;;;;;;6149580;29;20059;-76
2023/04/06 10:45:56;;;;;;;13.00;8.38;;;9.90;58.80;;;;;;6149485;29;20440;-76
2023/04/06 10:49:10;;;;;;;13.95;8.90;;;9.90;58.30;;;;;;6149280;29;20047;-76
2023/04/06 10:52:13;;;;;;;12.93;8.80;;;10.00;57.30;;;;;;6148977;29;20596;-78
2023/04/06 10:55:18;;;;;;;13.63;8.80;;;10.00;56.80;;;;;;6149203;29;20047;-78
2023/04/06 10:58:20;;;;;;;14.90;8.85;;;10.00;56.60;;;;;;6149177;29;20047;-78
2023/04/06 11:01:24;;;;;;;13.90;9.13;;;10.10;55.90;;;;;;6147435;29;20058;-79
2023/04/06 11:04:26;;;;;;;15.18;8.40;;;10.10;55.80;;;;;;6149310;29;20106;-79
2023/04/06 11:07:30;;;;;;;12.27;8.35;;;10.30;55.90;;;;;;6149412;29;20055;-79
2023/04/06 11:10:31;;;;;;;;;;;10.40;55.10;;;;;;6149171;29;20051;-77
2023/04/06 11:13:41;;;;;;;12.27;8.40;;;10.40;54.90;;;;;;6148203;29;20304;-77
2023/04/06 11:16:43;;;;;;;12.90;7.95;;;10.50;55.00;;;;;;6148447;29;20066;-78
2023/04/06 11:19:45;;;;;;;12.15;8.23;;;10.60;54.30;;;;;;6146417;29;20059;-78
2023/04/06 11:22:52;;;;;;;12.38;8.05;;;10.60;54.10;;;;;;6147788;28;20050;-77
2023/04/06 11:25:55;;;;;;;13.10;8.38;;;10.80;54.90;;;;;;6140525;29;20122;-77
2023/04/06 11:28:57;;;;;;;13.52;8.35;;;10.80;55.10;;;;;;6129148;29;20052;-79
2023/04/06 11:32:01;;;;;;;12.70;8.30;;;10.80;55.20;;;;;;6124628;28;20385;-79
2023/04/06 11:35:03;;;;;;;12.05;8.15;;;10.90;53.20;;;;;;6125019;29;20342;-79
2023/04/06 11:38:07;;;;;;;11.80;7.63;;;11.10;54.70;;;;;;6124689;29;20051;-79
2023/04/06 11:41:08;;;;;;;13.38;8.27;;;11.20;53.90;;;;;;6124179;29;20048;-80
2023/04/06 11:44:10;;;;;;;11.70;7.63;;;11.30;54.50;;;;;;6123907;29;20393;-79
2023/04/06 11:47:13;;;;;;;11.57;7.68;;;11.40;53.00;;;;;;6124362;29;20047;-80
2023/04/06 11:50:15;;;;;;;12.20;7.75;;;11.40;51.20;;;;;;6123046;29;20047;-82
2023/04/06 11:53:18;;;;;;;14.10;8.38;;;11.50;51.50;;;;;;6124458;29;20405;-79
2023/04/06 11:56:29;;;;;;;13.25;8.55;;;11.60;52.50;;;;;;6124468;29;20047;-79
2023/04/06 11:59:31;;;;;;;11.57;8.00;;;11.80;52.70;;;;;;6125869;29;20062;-81
2023/04/06 12:02:33;;;;;;;11.88;7.13;;;11.90;52.70;;;;;;6124693;29;20056;-81
2023/04/06 12:05:35;;;;;;;12.63;7.35;;;12.20;52.40;;;;;;6125002;29;20513;-81
2023/04/06 12:08:39;;;;;;;12.32;7.82;;;12.40;52.50;;;;;;6127348;29;20051;-81
2023/04/06 12:11:41;;;;;;;11.23;7.00;;;12.60;51.40;;;;;;6126268;29;20056;-81
2023/04/06 12:14:43;;;;;;;12.77;7.35;;;12.60;49.10;;;;;;6127368;29;20047;-81
2023/04/06 12:17:45;;;;;;;10.73;6.65;;;12.80;50.80;;;;;;6127471;29;20048;-81
2023/04/06 12:20:47;;;;;;;11.38;6.80;;;12.90;49.50;;;;;;6127294;29;20413;-81
2023/04/06 12:23:50;;;;;;;9.45;6.65;;;13.10;49.30;;;;;;6127591;29;20052;-80
2023/04/06 12:26:52;;;;;;;11.13;6.60;;;13.20;48.80;;;;;;6127146;29;20047;-80
2023/04/06 12:29:55;;;;;;;11.80;5.85;;;13.50;48.00;;;;;;6127411;29;20059;-81
2023/04/06 12:32:57;;;;;;;8.65;5.78;;;13.80;47.50;;;;;;6127107;29;20056;-81
2023/04/06 12:35:59;;;;;;;9.95;6.10;;;13.90;45.70;;;;;;6127091;29;20059;-80
2023/04/06 12:39:02;;;;;;;9.35;6.18;;;13.70;46.00;;;;;;6127541;29;20155;-80
2023/04/06 12:42:04;;;;;;;8.10;5.28;;;14.00;44.70;;;;;;6127058;29;20083;-80
2023/04/06 12:45:08;;;;;;;8.85;5.57;;;14.10;47.30;;;;;;6126903;29;20126;-81
2023/04/06 12:48:09;;;;;;;9.05;5.75;;;14.40;43.50;;;;;;6126802;29;20118;-81
2023/04/06 12:51:11;;;;;;;9.48;5.47;;;14.20;42.30;;;;;;6126810;29;20400;-81
2023/04/06 12:54:14;;;;;;;9.18;5.18;;;14.30;42.80;;;;;;6126976;29;20052;-81
2023/04/06 12:57:16;;;;;;;8.23;4.97;;;14.50;41.40;;;;;;6126878;29;20405;-79
2023/04/06 13:00:20;;;;;;;8.10;4.65;;;14.60;41.30;;;;;;6126780;29;20051;-78
2023/04/06 13:03:22;;;;;;;8.48;5.35;;;14.80;41.30;;;;;;6126865;29;20048;-79
2023/04/06 13:06:27;;;;;;;8.30;5.00;;;15.00;40.30;;;;;;6126822;29;20055;-78
2023/04/06 13:09:30;;;;;;;8.23;4.80;;;14.90;39.80;;;;;;6133409;29;20094;-78
2023/04/06 13:12:32;;;;;;;7.97;5.28;;;14.90;40.30;;;;;;6146876;29;20066;-77
2023/04/06 13:15:36;;;;;;;9.13;5.07;;;15.10;41.30;;;;;;6147201;29;20090;-78
2023/04/06 13:18:38;;;;;;;7.20;4.22;;;15.50;41.90;;;;;;6125408;29;20138;-78
2023/04/06 13:21:40;;;;;;;8.02;4.75;;;15.60;39.60;;;;;;6123291;29;20085;-78
2023/04/06 13:24:43;;;;;;;7.78;4.90;;;15.40;40.00;;;;;;6121786;29;20063;-78
2023/04/06 13:27:47;;;;;;;9.52;4.85;;;15.40;38.80;;;;;;6123444;29;20047;-78
2023/04/06 13:30:49;;;;;;;;;;;15.20;38.80;;;;;;6125493;28;20159;-77
2023/04/06 13:33:50;;;;;;;7.28;4.20;;;15.80;39.20;;;;;;6123136;29;19927;-77
2023/04/06 13:36:52;;;;;;;6.90;4.20;;;16.10;37.80;;;;;;6123946;29;20058;-78
2023/04/06 13:39:55;;;;;;;7.13;4.60;;;16.20;37.30;;;;;;6123210;29;20085;-78
2023/04/06 13:42:57;;;;;;;8.30;4.35;;;16.50;37.70;;;;;;6123391;29;20054;-78
2023/04/06 13:46:00;;;;;;;5.43;3.90;;;16.70;36.20;;;;;;6141055;28;20519;-77
2023/04/06 13:49:02;;;;;;;6.78;3.30;;;16.90;35.70;;;;;;6151587;29;20043;-78
2023/04/06 13:52:05;;;;;;;7.00;3.97;;;17.10;35.30;;;;;;6151213;29;20063;-78
2023/04/06 13:55:09;;;;;;;5.38;3.60;;;17.20;36.20;;;;;;6151100;29;20050;-78
2023/04/06 13:58:11;;;;;;;5.43;3.40;;;17.00;35.60;;;;;;6150646;29;20508;-78
2023/04/06 14:01:12;;;;;;;6.13;3.28;;;17.50;36.60;;;;;;6150671;29;20054;-80
2023/04/06 14:04:14;;;;;;;6.43;3.80;;;17.80;35.40;;;;;;6150795;29;20389;-78
2023/04/06 14:07:16;;;;;;;6.05;3.20;;;18.00;35.60;;;;;;6150511;29;20063;-79
2023/04/06 14:10:22;;;;;;;5.95;2.90;;;17.60;32.70;;;;;;6150433;29;20063;-79
2023/04/06 14:13:24;;;;;;;6.88;3.80;;;17.50;33.60;;;;;;6135671;29;20213;-78
2023/04/06 14:16:26;;;;;;;5.93;3.58;;;17.80;34.70;;;;;;6127382;29;20052;-79
2023/04/06 14:19:28;;;;;;;6.03;3.50;;;17.80;33.60;;;;;;6126869;29;20052;-79
2023/04/06 14:22:29;;;;;;;5.30;2.97;;;18.20;33.80;;;;;;6124388;29;20051;-79
2023/04/06 14:25:34;;;;;;;5.45;2.60;;;18.00;33.00;;;;;;6126758;29;20048;-79
2023/04/06 14:28:36;;;;;;;5.38;2.90;;;17.90;31.00;;;;;;6126781;29;20130;-80
2023/04/06 14:31:38;;;;;;;5.20;3.10;;;17.70;30.90;;;;;;6142076;28;20063;-80
2023/04/06 14:34:40;;;;;;;6.00;3.22;;;17.50;31.50;;;;;;6149688;29;20409;-80
2023/04/06 14:37:42;;;;;;;6.13;3.13;;;17.70;31.70;;;;;;6150256;29;20054;-80
2023/04/06 14:40:46;;;;;;;4.63;2.83;;;17.80;31.70;;;;;;6138931;29;20060;-79
2023/04/06 14:43:48;;;;;;;;;;;18.00;32.70;;;;;;6126813;29;20052;-79
2023/04/06 14:46:50;;;;;;;5.87;3.50;;;18.30;31.50;;;;;;6125056;29;20011;-79
2023/04/06 14:49:53;;;;;;;6.40;3.88;;;18.40;32.90;;;;;;6126456;29;20051;-79
2023/04/06 14:52:55;;;;;;;6.20;3.53;;;18.70;32.70;;;;;;6145612;29;20073;-80
2023/04/06 14:55:58;;;;;;;5.53;3.70;;;19.10;32.60;;;;;;6133690;29;20063;-79
2023/04/06 14:59:01;;;;;;;6.95;3.55;;;19.50;32.10;;;;;;6131032;29;20051;-79
2023/04/06 15:02:04;;;;;;;6.32;4.28;;;19.50;32.10;;;;;;6149730;29;20047;-79
2023/04/06 15:05:07;;;;;;;6.15;4.00;;;19.60;32.80;;;;;;6148796;29;20055;-79
2023/04/06 15:08:09;;;;;;;6.18;4.15;;;19.70;32.40;;;;;;6149452;29;20054;-79
2023/04/06 15:11:13;;;;;;;7.85;4.18;;;20.30;31.90;;;;;;6148832;29;20051;-78
2023/04/06 15:14:15;;;;;;;7.45;3.90;;;20.60;32.00;;;;;;6139915;29;20056;-79
2023/04/06 15:17:16;;;;;;;7.30;4.20;;;20.60;32.50;;;;;;6147083;29;20050;-79
2023/04/06 15:20:18;;;;;;;8.93;4.28;;;19.50;32.90;;;;;;6129879;29;20048;-79
2023/04/06 15:23:20;;;;;;;7.18;4.63;;;19.50;33.40;;;;;;6127623;29;20051;-79
2023/04/06 15:26:23;;;;;;;7.20;4.57;;;19.70;32.80;;;;;;6145515;29;20051;-78
2023/04/06 15:29:26;;;;;;;8.00;4.45;;;19.90;33.00;;;;;;6144890;29;20066;-79
2023/04/06 15:32:28;;;;;;;7.78;4.40;;;20.40;32.80;;;;;;6124710;29;20070;-79
2023/04/06 15:35:30;;;;;;;6.25;3.95;;;20.60;33.00;;;;;;6146555;29;20059;-79
2023/04/06 15:38:32;;;;;;;7.18;4.20;;;20.80;33.00;;;;;;6149441;29;20050;-79
2023/04/06 15:41:36;;;;;;;6.20;4.18;;;20.30;33.00;;;;;;6138986;29;20127;-79
2023/04/06 15:44:37;;;;;;;6.82;4.30;;;20.40;32.70;;;;;;6145904;28;20484;-79
2023/04/06 15:47:41;;;;;;;6.50;4.13;;;20.30;33.10;;;;;;6148025;29;20047;-79
2023/04/06 15:50:43;;;;;;;8.25;3.95;;;19.90;33.60;;;;;;6148675;29;20062;-79
2023/04/06 15:53:45;;;;;;;6.70;4.05;;;19.80;35.10;;;;;;6137670;29;20059;-79
2023/04/06 15:56:49;;;;;;;7.38;4.00;;;19.50;34.00;;;;;;6124413;29;20370;-79
2023/04/06 15:59:54;;;;;;;8.27;4.80;;;18.90;34.90;;;;;;6124423;29;20059;-79
2023/04/06 16:02:56;;;;;;;6.55;4.13;;;18.40;35.60;;;;;;6142722;29;20138;-79
2023/04/06 16:05:58;;;;;;;8.13;4.20;;;17.40;36.90;;;;;;6148525;29;20477;-80
2023/04/06 16:09:00;;;;;;;7.15;3.88;;;16.70;38.20;;;;;;6147604;28;20394;-80
2023/04/06 16:12:04;;;;;;;7.45;4.22;;;16.50;39.00;;;;;;6128452;29;20417;-79
2023/04/06 16:15:08;;;;;;;5.75;3.67;;;16.40;38.80;;;;;;6145149;29;20063;-79
2023/04/06 16:18:10;;;;;;;7.97;3.88;;;16.30;39.40;;;;;;6147139;29;20047;-79
2023/04/06 16:21:16;;;;;;;7.30;4.45;;;16.10;39.90;;;;;;6127943;29;20056;-80
2023/04/06 16:24:17;;;;;;;7.88;3.80;;;16.10;40.20;;;;;;6136716;29;20054;-79
2023/04/06 16:27:21;;;;;;;6.03;3.85;;;15.70;41.40;;;;;;6124327;29;20055;-79
2023/04/06 16:30:24;;;;;;;7.72;4.18;;;15.60;41.80;;;;;;6124228;29;20058;-79
2023/04/06 16:33:26;;;;;;;7.22;4.25;;;15.50;41.90;;;;;;6125637;29;20513;-78
2023/04/06 16:36:30;;;;;;;7.43;4.22;;;15.40;42.20;;;;;;6136162;29;20051;-78
2023/04/06 16:39:32;;;;;;;7.68;4.50;;;15.00;42.20;;;;;;6142794;28;20117;-76
2023/04/06 16:42:37;;;;;;;6.97;4.20;;;14.80;42.80;;;;;;6141991;28;20050;-77
2023/04/06 16:45:39;;;;;;;7.20;4.18;;;14.80;42.60;;;;;;6137811;29;20054;-77
2023/04/06 16:48:41;;;;;;;8.95;3.83;;;14.80;43.00;;;;;;6136951;28;20126;-75
2023/04/06 16:51:43;;;;;;;7.63;4.10;;;14.80;43.50;;;;;;6144749;29;20043;-77
2023/04/06 16:54:45;;;;;;;7.25;4.25;;;14.70;43.30;;;;;;6147624;29;20055;-75
2023/04/06 16:57:48;;;;;;;6.78;3.80;;;14.50;44.10;;;;;;6145124;29;20051;-77
2023/04/06 17:00:50;;;;;;;7.07;3.97;;;14.40;44.60;;;;;;6145038;29;20055;-76
2023/04/06 17:03:53;;;;;;;8.85;4.00;;;14.40;44.70;;;;;;6145653;29;20048;-75
2023/04/06 17:06:56;;;;;;;7.15;3.95;;;14.20;45.10;;;;;;6147757;29;20043;-77
2023/04/06 17:09:59;;;;;;;7.13;4.25;;;14.10;45.20;;;;;;6143487;29;20434;-76
2023/04/06 17:13:02;;;;;;;10.85;4.82;;;14.10;45.70;;;;;;6144737;29;20051;-75
2023/04/06 17:16:05;;;;;;;8.10;4.47;;;13.90;46.30;;;;;;6139560;29;20047;-75
2023/04/06 17:19:07;;;;;;;7.22;4.63;;;13.80;46.70;;;;;;6146666;29;20149;-74
2023/04/06 17:22:09;;;;;;;8.73;4.55;;;13.80;46.80;;;;;;6145446;28;21300;-76
2023/04/06 17:25:11;;;;;;;7.85;5.03;;;13.70;47.10;;;;;;6148245;29;20058;-75
2023/04/06 17:28:14;;;;;;;7.20;4.45;;;13.70;47.00;;;;;;6148605;29;20044;-76
2023/04/06 17:31:16;;;;;;;9.30;4.53;;;13.70;47.40;;;;;;6150510;28;20059;-76
2023/04/06 17:34:18;;;;;;;8.10;4.45;;;13.60;46.60;;;;;;6151528;29;20047;-75
2023/04/06 17:37:19;;;;;;;8.57;4.38;;;13.60;46.90;;;;;;6149048;29;20040;-77
2023/04/06 17:40:21;;;;;;;8.77;4.70;;;13.40;47.90;;;;;;6149836;29;20421;-79
2023/04/06 17:43:25;;;;;;;10.55;5.95;;;13.30;47.10;;;;;;6142559;29;20049;-79
2023/04/06 17:46:27;;;;;;;8.45;5.18;;;13.30;47.70;;;;;;6148945;29;20138;-81
2023/04/06 17:49:29;;;;;;;9.30;6.03;;;13.20;47.20;;;;;;6143464;29;20047;-80
2023/04/06 17:52:31;;;;;;;10.18;5.50;;;13.10;46.80;;;;;;6130842;29;20098;-78
2023/04/06 17:55:32;;;;;;;9.50;4.88;;;13.00;47.30;;;;;;6150890;29;20051;-79
2023/04/06 17:58:35;;;;;;;8.88;5.65;;;12.90;47.40;;;;;;6151101;29;20073;-79
2023/04/06 18:01:38;;;;;;;9.38;5.53;;;12.80;47.50;;;;;;6148692;29;20460;-81
2023/04/06 18:04:42;;;;;;;10.82;5.72;;;12.70;47.60;;;;;;6143358;29;20390;-78
2023/04/06 18:07:44;;;;;;;9.45;5.75;;;12.60;47.90;;;;;;6130804;29;20126;-78
2023/04/06 18:10:47;;;;;;;10.68;6.05;;;12.60;47.30;;;;;;6132162;29;20070;-78
2023/04/06 18:13:50;;;;;;;12.38;6.70;;;12.50;48.40;;;;;;6143197;29;20056;-78
2023/04/06 18:16:52;;;;;;;12.88;7.55;;;12.40;49.00;;;;;;6149829;29;20047;-76
2023/04/06 18:19:54;;;;;;;12.50;7.13;;;12.40;49.50;;;;;;6150558;29;20067;-77
2023/04/06 18:22:55;;;;;;;13.68;8.23;;;12.30;50.10;;;;;;6146186;29;20043;-77
2023/04/06 18:25:57;;;;;;;13.45;7.80;;;12.30;50.30;;;;;;6149266;29;20059;-77
2023/04/06 18:29:01;;;;;;;11.65;7.70;;;12.20;51.00;;;;;;6140589;29;20047;-77
2023/04/06 18:32:03;;;;;;;12.60;7.32;;;12.00;51.00;;;;;;6139690;28;20070;-77
2023/04/06 18:35:08;;;;;;;13.00;7.30;;;12.00;51.50;;;;;;6149256;29;20055;-77
2023/04/06 18:38:10;;;;;;;13.10;7.18;;;12.00;51.50;;;;;;6126208;29;20052;-77
2023/04/06 18:41:11;;;;;;;12.90;6.82;;;12.10;51.30;;;;;;6133666;29;20051;-77
2023/04/06 18:44:15;;;;;;;13.50;6.97;;;12.10;51.00;;;;;;6148848;29;20489;-82
2023/04/06 18:47:17;;;;;;;12.75;6.93;;;12.10;50.90;;;;;;6129111;29;20062;-82
2023/04/06 18:50:18;;;;;;;12.52;7.07;;;12.00;51.30;;;;;;6140030;29;20055;-82
2023/04/06 18:53:21;;;;;;;11.82;6.35;;;12.00;51.10;;;;;;6149072;29;20062;-81
2023/04/06 18:56:23;;;;;;;12.15;6.78;;;12.10;50.60;;;;;;6148948;29;20069;-78
2023/04/06 18:59:29;;;;;;;17.63;7.30;;;12.10;50.80;;;;;;6140281;29;20569;-80
2023/04/06 19:02:31;;;;;;;13.15;7.47;;;11.90;51.00;;;;;;6125794;29;20052;-79
2023/04/06 19:05:32;;;;;;;12.73;6.97;;;11.90;52.10;;;;;;6141618;29;20048;-79
2023/04/06 19:08:34;;;;;;;11.70;6.25;;;11.90;53.90;;;;;;6147837;29;20524;-80
2023/04/06 19:11:36;;;;;;;11.23;6.45;;;11.90;54.10;;;;;;6148573;29;20055;-86
2023/04/06 19:14:40;;;;;;;11.05;6.50;;;11.90;52.10;;;;;;6147287;29;20055;-84
2023/04/06 19:17:42;;;;;;;11.48;6.15;;;12.00;52.10;;;;;;6147894;29;20485;-81
2023/04/06 19:20:44;;;;;;;11.35;6.40;;;11.90;52.00;;;;;;6147483;29;20063;-79
2023/04/06 19:23:47;;;;;;;9.77;5.47;;;11.80;51.80;;;;;;6147146;29;20066;-80
2023/04/06 19:26:49;;;;;;;9.53;4.73;;;11.70;52.10;;;;;;6148836;29;20058;-86
2023/04/06 19:29:52;;;;;;;7.85;4.43;;;11.60;52.20;;;;;;6148886;29;20402;-83
2023/04/06 19:32:54;;;;;;;7.63;4.32;;;11.50;52.40;;;;;;6148830;28;20055;-82
2023/04/06 19:35:56;;;;;;;8.35;3.95;;;11.50;52.90;;;;;;6150515;29;20051;-83
2023/04/06 19:38:59;;;;;;;6.22;3.20;;;11.40;53.20;;;;;;6151615;29;20062;-82
2023/04/06 19:42:02;;;;;;;5.25;2.63;;;11.30;54.00;;;;;;6148533;29;20070;-81
2023/04/06 19:45:07;;;;;;;4.45;2.78;;;11.30;54.30;;;;;;6150328;28;20047;-81
2023/04/06 19:48:09;;;;;;;5.05;2.40;;;11.30;54.30;;;;;;6150501;29;20066;-81
2023/04/06 19:51:12;;;;;;;4.95;2.15;;;11.30;54.30;;;;;;6148256;29;20055;-83
2023/04/06 19:54:14;;;;;;;3.63;1.90;;;11.20;54.20;;;;;;6149181;29;20627;-83
2023/04/06 19:57:16;;;;;;;3.85;2.15;;;11.30;54.50;;;;;;6145688;29;20409;-80
2023/04/06 20:00:19;;;;;;;5.13;2.10;;;11.30;54.50;;;;;;6146574;28;20047;-77
2023/04/06 20:03:21;;;;;;;;;;;11.30;54.70;;;;;;6125302;29;20138;-74
2023/04/06 20:06:23;;;;;;;4.43;2.20;;;11.30;54.90;;;;;;6132770;29;19934;-75
2023/04/06 20:09:25;;;;;;;5.90;2.25;;;11.30;54.70;;;;;;6129957;29;20047;-75
2023/04/06 20:12:27;;;;;;;5.40;2.00;;;11.30;55.50;;;;;;6133993;29;20064;-75
2023/04/06 20:15:30;;;;;;;4.93;2.40;;;11.30;55.50;;;;;;6124413;29;20062;-74
2023/04/06 20:18:32;;;;;;;5.07;2.10;;;11.30;55.30;;;;;;6124094;29;20052;-77
2023/04/06 20:21:34;;;;;;;4.78;2.30;;;11.30;55.70;;;;;;6141271;29;20179;-76
2023/04/06 20:24:36;;;;;;;4.45;2.17;;;11.30;55.50;;;;;;6145550;29;20059;-80
2023/04/06 20:27:38;;;;;;;5.47;2.40;;;11.30;55.40;;;;;;6148139;29;20070;-81
2023/04/06 20:30:41;;;;;;;4.65;2.70;;;11.20;56.40;;;;;;6145762;28;20059;-81
2023/04/06 20:33:43;;;;;;;5.18;2.80;;;11.00;59.00;;;;;;6170802;28;20393;-82
2023/04/06 20:36:45;;;;;;;5.43;3.05;;;10.80;60.10;;;;;;6171656;28;20057;-81
2023/04/06 20:39:47;;;;;;;6.05;2.85;;;10.80;61.00;;;;;;6170559;28;20062;-83
2023/04/06 20:42:49;;;;;;;7.05;3.28;;;10.80;61.50;;;;;;6155200;28;20517;-81
2023/04/06 20:45:52;;;;;;;13.18;7.43;;;10.90;62.00;;;;;;6147429;28;20500;-79
2023/04/06 20:48:55;;;;;;;10.85;5.72;;;10.90;62.30;;;;;;6149609;28;20481;-79
2023/04/06 20:51:57;;;;;;;5.18;2.90;;;10.90;62.70;;;;;;6160074;28;20081;-78
2023/04/06 20:55:00;;;;;;;5.55;3.15;;;10.80;63.30;;;;;;6162725;28;20046;-73
2023/04/06 20:58:01;;;;;;;7.25;3.47;;;10.70;63.80;;;;;;6175257;28;20054;-73
2023/04/06 21:01:11;;;;;;;6.88;3.47;;;10.60;64.60;;;;;;6175639;28;20055;-72
2023/04/06 21:04:13;;;;;;;6.20;3.47;;;10.60;65.10;;;;;;6171248;28;20050;-72
2023/04/06 21:07:15;;;;;;;6.32;3.30;;;10.50;65.50;;;;;;6156037;28;20082;-72
2023/04/06 21:10:17;;;;;;;6.80;3.33;;;10.50;65.80;;;;;;6165581;28;20055;-72
2023/04/06 21:13:19;;;;;;;5.47;3.63;;;10.40;66.40;;;;;;6152244;28;20051;-72
2023/04/06 21:16:22;;;;;;;6.50;3.88;;;10.30;67.00;;;;;;6172260;28;20386;-72
2023/04/06 21:19:24;;;;;;;7.50;4.22;;;10.10;68.20;;;;;;6173185;28;20057;-72
2023/04/06 21:22:26;;;;;;;6.82;4.18;;;10.10;68.90;;;;;;6149790;29;20134;-72
2023/04/06 21:25:29;;;;;;;8.00;3.80;;;9.90;69.90;;;;;;6164248;28;20067;-72
2023/04/06 21:28:30;;;;;;;6.05;4.03;;;9.80;71.30;;;;;;6174440;28;20061;-72
2023/04/06 21:31:39;;;;;;;6.97;4.43;;;9.80;71.90;;;;;;6166037;28;20055;-72
2023/04/06 21:34:44;;;;;;;7.75;4.20;;;9.80;72.40;;;;;;6150478;29;20121;-72
2023/04/06 21:37:46;;;;;;;7.65;4.47;;;9.90;73.20;;;;;;6151140;29;20051;-72
2023/04/06 21:40:55;;;;;;;7.88;4.70;;;9.90;74.00;;;;;;6151703;29;20173;-72
2023/04/06 21:43:57;;;;;;;7.57;4.65;;;9.80;75.40;;;;;;6138412;29;20110;-73
2023/04/06 21:47:00;;;;;;;6.90;4.30;;;9.80;76.90;;;;;;6149322;29;20077;-73
2023/04/06 21:50:02;;;;;;;6.82;4.00;;;9.80;77.50;;;;;;6130507;29;20044;-72
2023/04/06 21:53:04;;;;;;;7.57;3.70;;;9.80;78.20;;;;;;6150988;29;20057;-73
2023/04/06 21:56:06;;;;;;;11.30;6.00;;;9.80;79.60;;;;;;6153162;29;20406;-74
2023/04/06 21:59:08;;;;;;;6.03;3.97;;;9.80;80.90;;;;;;6154421;29;20047;-74
